createdAt,value
2022-09-30T00:01:32.727Z,100628.78
2022-09-30T00:05:34.242Z,100630.19
2022-09-30T00:09:35.738Z,100631.72
2022-09-30T00:13:40.055Z,100638.03
2022-09-30T00:17:41.452Z,100636.38
2022-09-30T00:21:43.478Z,100641.09
2022-09-30T00:25:44.964Z,100636.41
2022-09-30T00:29:46.535Z,100646.09
2022-09-30T00:34:06.659Z,100642.97
2022-09-30T00:38:08.005Z,100638.84
2022-09-30T00:42:14.823Z,100635.78
2022-09-30T00:46:23.492Z,100642.50
2022-09-30T00:50:38.836Z,100637.34
2022-09-30T00:54:40.267Z,100633.00
2022-09-30T00:58:59.825Z,100636.34
2022-09-30T01:03:02.288Z,100636.38
2022-09-30T01:07:06.270Z,100638.06
2022-09-30T01:11:08.454Z,100640.59
2022-09-30T01:15:10.349Z,100647.97
2022-09-30T01:19:24.130Z,100639.78
2022-09-30T01:23:51.845Z,100636.56
2022-09-30T01:28:03.396Z,100639.81
2022-09-30T01:32:22.870Z,100641.66
2022-09-30T01:36:38.265Z,100643.72
2022-09-30T01:41:00.830Z,100645.63
2022-09-30T01:45:09.610Z,100648.75
2022-09-30T01:49:25.706Z,100647.09
2022-09-30T01:53:56.181Z,100649.91
2022-09-30T01:58:05.375Z,100655.84
2022-09-30T02:02:13.365Z,100651.44
2022-09-30T02:06:42.753Z,100650.66
2022-09-30T02:10:53.545Z,100651.63
2022-09-30T02:15:15.112Z,100650.09
2022-09-30T02:19:28.199Z,100663.38
2022-09-30T02:23:35.336Z,100656.97
2022-09-30T02:27:43.469Z,100657.00
2022-09-30T02:31:49.713Z,100662.03
2022-09-30T02:35:59.018Z,100658.00
2022-09-30T02:40:10.615Z,100660.66
2022-09-30T02:44:12.508Z,100661.06
2022-09-30T02:48:26.204Z,100676.88
2022-09-30T02:52:34.486Z,100665.28
2022-09-30T02:56:50.963Z,100669.94
2022-09-30T03:00:54.626Z,100669.03
2022-09-30T03:04:56.154Z,100677.53
2022-09-30T03:08:57.625Z,100681.03
2022-09-30T03:13:17.116Z,100680.31
2022-09-30T03:17:53.484Z,100689.84
2022-09-30T03:22:11.418Z,100693.44
2022-09-30T03:26:25.665Z,100706.22
2022-09-30T03:30:27.369Z,100709.91
2022-09-30T03:34:47.013Z,100715.28
2022-09-30T03:38:58.079Z,100717.88
2022-09-30T03:43:28.468Z,100725.97
2022-09-30T03:47:33.648Z,100725.84
2022-09-30T03:51:38.211Z,100733.03
2022-09-30T03:55:51.145Z,100728.50
2022-09-30T03:59:52.757Z,100718.09
2022-09-30T04:03:54.189Z,100722.84
2022-09-30T04:07:55.606Z,100718.88
2022-09-30T04:11:57.008Z,100719.66
2022-09-30T04:15:58.548Z,100725.78
2022-09-30T04:20:00.116Z,100722.38
2022-09-30T04:24:01.700Z,100719.75
2022-09-30T04:28:03.907Z,100735.69
2022-09-30T04:32:05.433Z,100743.31
2022-09-30T04:36:07.501Z,100741.63
2022-09-30T04:40:10.612Z,100739.94
2022-09-30T04:44:13.486Z,100744.31
2022-09-30T04:48:15.924Z,100751.41
2022-09-30T04:52:17.344Z,100756.25
2022-09-30T04:56:19.199Z,100759.47
2022-09-30T05:00:20.700Z,100757.84
2022-09-30T05:04:22.175Z,100764.25
2022-09-30T05:08:23.607Z,100762.31
2022-09-30T05:12:26.227Z,100768.59
2022-09-30T05:16:27.993Z,100766.81
2022-09-30T05:20:29.991Z,100777.34
2022-09-30T05:24:31.410Z,100778.31
2022-09-30T05:28:32.868Z,100788.84
2022-09-30T05:32:34.335Z,100790.44
2022-09-30T05:36:36.094Z,100794.91
2022-09-30T05:40:41.937Z,100798.34
2022-09-30T05:44:43.415Z,100797.44
2022-09-30T05:48:45.210Z,100807.09
2022-09-30T05:52:47.173Z,100815.97
2022-09-30T05:56:48.645Z,100810.50
2022-09-30T06:00:50.516Z,100821.00
2022-09-30T06:04:51.995Z,100821.88
2022-09-30T06:08:53.467Z,100821.03
2022-09-30T06:12:55.002Z,100817.38
2022-09-30T06:16:56.419Z,100815.53
2022-09-30T06:20:59.401Z,100821.47
2022-09-30T06:25:00.821Z,100824.16
2022-09-30T06:29:02.383Z,100828.28
2022-09-30T06:33:03.786Z,100827.63
2022-09-30T06:37:06.057Z,100841.47
2022-09-30T06:41:08.228Z,100837.03
2022-09-30T06:45:15.888Z,100850.22
2022-09-30T06:49:25.574Z,100847.66
2022-09-30T06:53:27.826Z,100852.84
2022-09-30T06:57:29.268Z,100863.41
2022-09-30T07:01:30.695Z,100858.25
2022-09-30T07:05:32.316Z,100856.53
2022-09-30T07:09:33.950Z,100850.97
2022-09-30T07:13:35.434Z,100854.88
2022-09-30T07:17:36.916Z,100853.63
2022-09-30T07:21:38.304Z,100865.22
2022-09-30T07:25:39.718Z,100862.91
2022-09-30T07:30:07.135Z,100868.94
2022-09-30T07:34:06.985Z,100870.06
2022-09-30T07:38:08.904Z,100871.56
2022-09-30T07:42:11.879Z,100883.53
2022-09-30T07:46:20.443Z,100882.94
2022-09-30T07:50:21.886Z,100886.69
2022-09-30T07:54:26.421Z,100887.91
2022-09-30T07:58:27.823Z,100892.34
2022-09-30T08:02:29.457Z,100892.75
2022-09-30T08:06:32.500Z,100895.66
2022-09-30T08:10:35.247Z,100896.53
2022-09-30T08:14:36.684Z,100893.47
2022-09-30T08:18:38.083Z,100895.97
2022-09-30T08:22:39.512Z,100891.09
2022-09-30T08:26:41.904Z,100893.53
2022-09-30T08:30:43.422Z,100884.81
2022-09-30T08:34:44.829Z,100882.16
2022-09-30T08:38:46.720Z,100880.84
2022-09-30T08:42:57.734Z,100879.00
2022-09-30T08:47:05.613Z,100878.94
2022-09-30T08:51:21.082Z,100885.06
2022-09-30T08:55:38.469Z,100879.81
2022-09-30T08:59:47.980Z,100889.31
2022-09-30T09:03:49.528Z,100889.19
2022-09-30T09:08:00.427Z,100884.38
2022-09-30T09:12:35.818Z,100900.72
2022-09-30T09:16:58.580Z,100905.16
2022-09-30T09:21:04.180Z,100902.78
2022-09-30T09:25:06.013Z,100899.38
2022-09-30T09:29:27.729Z,100899.81
2022-09-30T09:33:42.064Z,100897.47
2022-09-30T09:38:21.659Z,100906.28
2022-09-30T09:43:06.313Z,100902.41
2022-09-30T09:47:17.002Z,100908.19
2022-09-30T09:51:31.203Z,100909.56
2022-09-30T09:55:32.627Z,100909.19
2022-09-30T09:59:34.112Z,100909.44
2022-09-30T10:03:35.826Z,100910.59
2022-09-30T10:07:37.268Z,100913.41
2022-09-30T10:11:38.699Z,100914.19
2022-09-30T10:15:43.067Z,100923.16
2022-09-30T10:19:52.650Z,100921.81
2022-09-30T10:23:54.582Z,100919.75
2022-09-30T10:28:01.486Z,100911.84
2022-09-30T10:32:08.675Z,100911.41
2022-09-30T10:36:19.457Z,100926.91
2022-09-30T10:40:27.508Z,100933.84
2022-09-30T10:44:30.098Z,100925.63
2022-09-30T10:48:35.399Z,100918.41
2022-09-30T10:52:47.317Z,100914.13
2022-09-30T10:56:52.700Z,100911.16
2022-09-30T11:01:03.034Z,100910.78
2022-09-30T11:05:24.790Z,100910.88
2022-09-30T11:09:54.570Z,100896.53
2022-09-30T11:14:19.153Z,100912.47
2022-09-30T11:18:47.334Z,100907.59
2022-09-30T11:22:56.580Z,100914.41
2022-09-30T11:27:15.497Z,100918.94
2022-09-30T11:31:35.724Z,100914.78
2022-09-30T11:35:46.121Z,100905.97
2022-09-30T11:39:53.580Z,100916.75
2022-09-30T11:44:21.884Z,100911.22
2022-09-30T11:48:33.089Z,100915.88
2022-09-30T11:52:53.427Z,100912.31
2022-09-30T11:57:00.596Z,100913.81
2022-09-30T12:01:33.572Z,100915.19
2022-09-30T12:05:43.232Z,100896.09
2022-09-30T12:09:51.201Z,100901.34
2022-09-30T12:13:57.148Z,100893.53
2022-09-30T12:18:06.926Z,100905.16
2022-09-30T12:22:16.160Z,100901.47
2022-09-30T12:26:18.312Z,100912.47
2022-09-30T12:30:22.344Z,100909.81
2022-09-30T12:34:45.665Z,100904.00
2022-09-30T12:39:25.038Z,100903.66
2022-09-30T12:43:35.299Z,100905.97
2022-09-30T12:47:46.134Z,100918.88
2022-09-30T12:51:56.876Z,100911.22
2022-09-30T12:56:11.599Z,100910.16
2022-09-30T13:00:17.489Z,100901.41
2022-09-30T13:04:45.881Z,100904.63
2022-09-30T13:09:24.819Z,100916.91
2022-09-30T13:13:32.288Z,100911.91
2022-09-30T13:17:36.158Z,100911.34
2022-09-30T13:21:38.019Z,100911.09
2022-09-30T13:25:54.679Z,100900.78
2022-09-30T13:29:56.170Z,100898.88
2022-09-30T13:34:08.689Z,100909.03
2022-09-30T13:38:13.535Z,100906.09
2022-09-30T13:42:26.828Z,100900.75
2022-09-30T13:46:56.551Z,100895.78
2022-09-30T13:51:00.404Z,100906.78
2022-09-30T13:55:24.918Z,100912.03
2022-09-30T13:59:41.695Z,100908.50
2022-09-30T14:04:16.011Z,100899.47
2022-09-30T14:08:34.685Z,100894.41
2022-09-30T14:12:44.876Z,100904.09
2022-09-30T14:17:05.561Z,100891.09
2022-09-30T14:21:26.427Z,100897.41
2022-09-30T14:25:38.213Z,100894.56
2022-09-30T14:29:56.949Z,100897.13
2022-09-30T14:33:58.668Z,100888.59
2022-09-30T14:38:12.898Z,100885.50
2022-09-30T14:42:23.405Z,100894.03
2022-09-30T14:46:38.754Z,100879.09
2022-09-30T14:50:50.633Z,100880.91
2022-09-30T14:54:52.070Z,100884.38
2022-09-30T14:58:57.099Z,100883.66
2022-09-30T15:02:59.727Z,100884.38
2022-09-30T15:07:04.050Z,100888.13
2022-09-30T15:11:05.634Z,100884.78
2022-09-30T15:15:22.778Z,100885.81
2022-09-30T15:19:33.905Z,100886.88
2022-09-30T15:23:37.892Z,100889.50
2022-09-30T15:27:39.549Z,100887.28
2022-09-30T15:31:45.876Z,100896.72
2022-09-30T15:35:47.764Z,100897.28
2022-09-30T15:40:08.706Z,100897.28
2022-09-30T15:44:17.730Z,100894.00
2022-09-30T15:48:33.409Z,100890.72
2022-09-30T15:52:39.946Z,100899.78
2022-09-30T15:56:43.101Z,100895.63
2022-09-30T16:00:45.644Z,100888.44
2022-09-30T16:04:51.858Z,100890.00
2022-09-30T16:09:01.494Z,100894.75
2022-09-30T16:13:06.877Z,100893.50
2022-09-30T16:17:18.703Z,100888.28
2022-09-30T16:21:52.722Z,100884.41
2022-09-30T16:26:12.592Z,100890.06
2022-09-30T16:30:19.585Z,100886.59
2022-09-30T16:34:26.348Z,100888.06
2022-09-30T16:38:27.767Z,100883.56
2022-09-30T16:42:30.184Z,100889.66
2022-09-30T16:46:33.069Z,100882.88
2022-09-30T16:50:46.698Z,100876.78
2022-09-30T16:54:48.102Z,100879.97
2022-09-30T16:58:49.544Z,100875.00
2022-09-30T17:02:50.986Z,100878.59
2022-09-30T17:06:53.680Z,100882.31
2022-09-30T17:10:57.728Z,100881.63
2022-09-30T17:14:59.118Z,100885.44
2022-09-30T17:19:00.524Z,100887.38
2022-09-30T17:23:06.999Z,100888.59
2022-09-30T17:27:08.947Z,100887.28
2022-09-30T17:31:10.921Z,100886.16
2022-09-30T17:35:12.659Z,100887.41
2022-09-30T17:39:14.165Z,100883.91
2022-09-30T17:43:15.583Z,100879.56
2022-09-30T17:47:18.040Z,100882.50
2022-09-30T17:51:19.583Z,100893.00
2022-09-30T17:55:21.131Z,100889.47
2022-09-30T17:59:26.867Z,100892.38
2022-09-30T18:03:28.364Z,100895.28
2022-09-30T18:07:29.832Z,100903.28
2022-09-30T18:11:31.760Z,100906.81
2022-09-30T18:15:33.510Z,100907.88
2022-09-30T18:19:35.638Z,100906.16
2022-09-30T18:23:37.347Z,100908.06
2022-09-30T18:27:38.766Z,100912.50
2022-09-30T18:31:40.831Z,100914.13
2022-09-30T18:35:42.583Z,100915.00
2022-09-30T18:39:44.070Z,100909.09
2022-09-30T18:43:46.235Z,100918.97
2022-09-30T18:47:48.162Z,100913.78
2022-09-30T18:51:49.563Z,100916.63
2022-09-30T18:55:50.992Z,100906.28
2022-09-30T18:59:52.942Z,100912.44
2022-09-30T19:03:54.424Z,100903.56
2022-09-30T19:07:56.018Z,100905.69
2022-09-30T19:11:59.307Z,100903.94
2022-09-30T19:16:05.163Z,100891.91
2022-09-30T19:20:07.236Z,100897.19
2022-09-30T19:24:09.202Z,100898.34
2022-09-30T19:28:10.645Z,100891.78
2022-09-30T19:32:12.798Z,100898.19
2022-09-30T19:36:16.219Z,100895.69
2022-09-30T19:40:21.874Z,100895.56
2022-09-30T19:44:23.728Z,100901.09
2022-09-30T19:48:26.832Z,100900.28
2022-09-30T19:52:28.278Z,100889.66
2022-09-30T19:56:30.015Z,100882.66
2022-09-30T20:00:31.471Z,100881.84
2022-09-30T20:04:34.192Z,100877.44
2022-09-30T20:08:36.846Z,100868.72
2022-09-30T20:12:38.330Z,100858.25
2022-09-30T20:16:42.446Z,100862.09
2022-09-30T20:20:45.633Z,100855.81
2022-09-30T20:24:47.076Z,100855.56
2022-09-30T20:28:48.475Z,100853.84
2022-09-30T20:32:49.868Z,100857.28
2022-09-30T20:36:51.524Z,100847.56
2022-09-30T20:40:56.768Z,100853.72
2022-09-30T20:45:03.038Z,100850.38
2022-09-30T20:49:04.732Z,100849.53
2022-09-30T20:53:09.264Z,100852.19
2022-09-30T20:57:10.708Z,100849.34
2022-09-30T21:01:14.111Z,100849.34
2022-09-30T21:05:15.767Z,100845.81
2022-09-30T21:09:17.255Z,100845.09
2022-09-30T21:13:18.851Z,100845.94
2022-09-30T21:17:20.239Z,100845.84
2022-09-30T21:21:24.554Z,100851.31
2022-09-30T21:25:26.009Z,100853.94
2022-09-30T21:29:27.447Z,100838.91
2022-09-30T21:33:28.987Z,100839.22
2022-09-30T21:37:30.574Z,100833.19
2022-09-30T21:41:33.555Z,100841.28
2022-09-30T21:45:36.033Z,100838.84
2022-09-30T21:49:38.374Z,100836.22
2022-09-30T21:53:40.100Z,100828.19
2022-09-30T21:57:41.568Z,100822.00
2022-09-30T22:01:43.383Z,100829.84
2022-09-30T22:05:54.678Z,100822.88
2022-09-30T22:09:56.096Z,100817.41
2022-09-30T22:13:59.358Z,100815.59
2022-09-30T22:18:01.148Z,100806.59
2022-09-30T22:22:02.534Z,100806.66
2022-09-30T22:26:12.339Z,100803.91
2022-09-30T22:30:14.106Z,100804.31
2022-09-30T22:34:34.612Z,100801.47
2022-09-30T22:38:36.420Z,100787.34
2022-09-30T22:42:38.653Z,100781.22
2022-09-30T22:46:40.065Z,100782.94
2022-09-30T22:50:41.523Z,100774.97
2022-09-30T22:54:42.925Z,100766.22
2022-09-30T22:58:46.717Z,100770.72
2022-09-30T23:02:52.790Z,100768.13
2022-09-30T23:06:55.368Z,100772.75
2022-09-30T23:10:57.424Z,100758.53
2022-09-30T23:14:58.859Z,100754.09
2022-09-30T23:19:00.416Z,100754.94
2022-09-30T23:23:01.828Z,100747.84
2022-09-30T23:27:03.249Z,100735.47
2022-09-30T23:31:10.266Z,100735.66
2022-09-30T23:35:12.284Z,100730.94
2022-09-30T23:39:20.135Z,100725.78
2022-09-30T23:43:22.219Z,100729.84
2022-09-30T23:47:23.652Z,100718.72
2022-09-30T23:51:25.106Z,100716.88
2022-09-30T23:55:29.775Z,100716.94
2022-09-30T23:59:32.118Z,100705.44
